Ocee, Texas
Current Conditions -  °F | °C
As of 8:55 AM on Friday 28 Nov 2014 (Local Time) from KPWG Reporting Station
Scattered Clouds Scattered Clouds  
Wind Chill: 52°   Ceiling: Unl
Heat Index: 52°   Visibility: 10mi
Dew Point: 43°   Wind: 13mph
Humidity: 71%   Direction: 190°S
Pressure: 30.3"   Gusts: NA
Location:  31.5634°N, 97.4392°W
Report Text: KPWG 281455Z AUTO 19011KT 10SM FEW016 SCT031 11/06 A3030 RMK AO1 57003
Loading
Personal Weather Stations






























Interactive Weather Map New forecast layout! Learn more

10-Day Weather Forecast

Advertisements
Track Severe Weather on mobile